Time;durP1;ratioP1;P1;durP2;ratioP2;P2;SDS_P1;SDS_P2;PMS_P1;PMS_P2;Temp;Humidity;BMP_temperature;BMP_pressure;BME280_temperature;BME280_humidity;BME280_pressure;Samples;Min_cycle;Max_cycle;Signal;HPM_P1;HPM_P2
2020/12/13 00:00:32;;;;;;;6.50;6.00;;;10.00;52.20;;;;;;5051256;28;20252;-65
2020/12/13 00:02:58;;;;;;;5.83;5.40;;;10.10;54.10;;;;;;5051490;28;20615;-65
2020/12/13 00:05:23;;;;;;;5.60;5.17;;;10.10;53.30;;;;;;5051268;28;20406;-65
2020/12/13 00:07:50;;;;;;;5.67;5.27;;;10.20;52.80;;;;;;5050814;28;20250;-65
2020/12/13 00:10:17;;;;;;;5.50;5.10;;;10.20;52.10;;;;;;5050955;28;20247;-65
2020/12/13 00:12:42;;;;;;;6.20;5.70;;;10.20;51.60;;;;;;5050197;28;20788;-65
2020/12/13 00:15:08;;;;;;;4.70;4.40;;;10.30;51.70;;;;;;5050796;28;20469;-65
2020/12/13 00:17:33;;;;;;;4.70;4.40;;;10.30;50.90;;;;;;5050757;28;20169;-65
2020/12/13 00:19:59;;;;;;;5.63;5.17;;;10.40;51.10;;;;;;5051061;28;20179;-65
2020/12/13 00:22:24;;;;;;;5.07;4.77;;;10.30;50.40;;;;;;5050671;28;20603;-65
2020/12/13 00:24:50;;;;;;;5.17;4.37;;;10.30;50.40;;;;;;5050657;28;20270;-65
2020/12/13 00:27:16;;;;;;;5.27;4.87;;;10.20;51.30;;;;;;5050687;28;20236;-65
2020/12/13 00:29:42;;;;;;;5.17;4.67;;;10.20;51.10;;;;;;5050701;28;20262;-65
2020/12/13 00:32:08;;;;;;;4.60;4.30;;;10.20;50.90;;;;;;5050433;28;20207;-65
2020/12/13 00:34:34;;;;;;;4.70;4.40;;;10.20;51.50;;;;;;5050822;28;20538;-65
2020/12/13 00:37:00;;;;;;;4.80;4.50;;;10.20;51.60;;;;;;5050578;28;20505;-65
2020/12/13 00:39:26;;;;;;;4.83;4.40;;;10.20;50.80;;;;;;5050275;28;20868;-65
2020/12/13 00:41:53;;;;;;;5.00;4.50;;;10.20;51.60;;;;;;5050540;28;20880;-65
2020/12/13 00:44:19;;;;;;;4.53;4.23;;;10.10;51.50;;;;;;5050476;28;20399;-64
2020/12/13 00:46:45;;;;;;;4.70;4.30;;;10.20;51.10;;;;;;5050649;28;20544;-65
2020/12/13 00:49:11;;;;;;;4.57;4.27;;;10.20;50.60;;;;;;5050264;28;20461;-66
2020/12/13 00:51:36;;;;;;;5.23;4.83;;;10.30;50.50;;;;;;5050316;28;20442;-66
2020/12/13 00:54:02;;;;;;;4.30;3.90;;;10.30;49.90;;;;;;5050055;28;20188;-66
2020/12/13 00:56:28;;;;;;;4.70;4.40;;;10.40;49.30;;;;;;5050205;28;20561;-65
2020/12/13 00:58:53;;;;;;;5.00;4.67;;;10.30;49.90;;;;;;5050299;28;20290;-66
2020/12/13 01:01:19;;;;;;;4.67;4.27;;;10.30;49.90;;;;;;5049980;28;20178;-65
2020/12/13 01:03:44;;;;;;;5.17;4.77;;;10.30;51.70;;;;;;5050198;28;20192;-66
2020/12/13 01:06:10;;;;;;;6.43;4.17;;;10.30;51.10;;;;;;5050214;28;20345;-65
2020/12/13 01:08:35;;;;;;;4.43;4.10;;;10.20;50.20;;;;;;5049644;28;20821;-66
2020/12/13 01:11:01;;;;;;;4.37;4.07;;;10.10;49.90;;;;;;5049940;28;20172;-65
2020/12/13 01:13:26;;;;;;;3.90;3.60;;;10.10;50.30;;;;;;5049927;28;20199;-64
2020/12/13 01:15:53;;;;;;;4.10;3.80;;;10.10;50.20;;;;;;5049837;28;20283;-65
2020/12/13 01:18:19;;;;;;;4.43;4.23;;;10.10;50.10;;;;;;5049892;28;20179;-65
2020/12/13 01:20:45;;;;;;;4.70;4.37;;;10.10;51.50;;;;;;5049778;28;20502;-65
2020/12/13 01:23:11;;;;;;;4.90;4.50;;;10.00;50.70;;;;;;5049187;28;20528;-66
2020/12/13 01:25:36;;;;;;;4.60;4.20;;;9.90;52.90;;;;;;5049661;28;20172;-65
2020/12/13 01:28:02;;;;;;;4.50;4.20;;;10.00;50.90;;;;;;5049319;28;20298;-65
2020/12/13 01:30:27;;;;;;;4.00;3.70;;;9.90;51.60;;;;;;5049340;28;20168;-65
2020/12/13 01:32:53;;;;;;;4.47;4.20;;;10.00;50.10;;;;;;5049400;28;20211;-65
2020/12/13 01:35:18;;;;;;;4.40;4.10;;;10.00;51.00;;;;;;5049469;28;20942;-66
2020/12/13 01:37:44;;;;;;;4.07;3.77;;;10.10;52.90;;;;;;5048982;28;20172;-65
2020/12/13 01:40:09;;;;;;;4.83;4.47;;;10.00;50.80;;;;;;5049280;28;20180;-65
2020/12/13 01:42:42;;;;;;;4.60;4.30;;;10.00;50.70;;;;;;5049340;28;20196;-66
2020/12/13 01:45:13;;;;;;;5.27;4.93;;;10.00;51.70;;;;;;5049194;28;20206;-66
2020/12/13 01:47:39;;;;;;;4.07;3.87;;;10.00;51.90;;;;;;5047881;28;20414;-65
2020/12/13 01:50:12;;;;;;;4.60;4.30;;;10.00;50.60;;;;;;5047813;28;20406;-65
2020/12/13 01:52:44;;;;;;;4.60;4.20;;;10.10;50.30;;;;;;5048898;28;20423;-65
2020/12/13 01:55:11;;;;;;;3.90;3.70;;;10.10;51.00;;;;;;5049320;28;20504;-65
2020/12/13 01:57:40;;;;;;;4.10;3.80;;;10.30;50.10;;;;;;5048851;28;20490;-65
2020/12/13 02:00:15;;;;;;;4.27;3.97;;;10.10;50.00;;;;;;5049090;28;20417;-65
2020/12/13 02:02:53;;;;;;;4.00;3.70;;;10.20;49.90;;;;;;5049050;28;20557;-65
2020/12/13 02:05:20;;;;;;;3.93;3.63;;;10.30;49.20;;;;;;5049288;28;20746;-65
2020/12/13 02:07:51;;;;;;;4.77;4.37;;;10.20;50.30;;;;;;5048858;28;20458;-65
2020/12/13 02:10:17;;;;;;;4.40;3.77;;;10.10;50.50;;;;;;5048962;28;20463;-65
2020/12/13 02:12:43;;;;;;;4.10;3.80;;;10.20;51.70;;;;;;5048842;28;20465;-65
2020/12/13 02:15:09;;;;;;;4.00;3.77;;;10.20;51.90;;;;;;5048683;28;20478;-65
2020/12/13 02:17:36;;;;;;;4.17;3.87;;;10.20;52.30;;;;;;5048808;28;20407;-65
2020/12/13 02:20:13;;;;;;;4.27;4.00;;;10.20;51.60;;;;;;5047834;28;20402;-65
2020/12/13 02:22:47;;;;;;;4.60;4.20;;;10.20;51.60;;;;;;5048680;28;20587;-65
2020/12/13 02:25:21;;;;;;;3.30;3.10;;;10.20;51.60;;;;;;5048885;28;20409;-65
2020/12/13 02:27:48;;;;;;;3.53;3.33;;;10.00;49.70;;;;;;5048469;28;20410;-66
2020/12/13 02:30:14;;;;;;;3.70;3.50;;;10.00;50.10;;;;;;5048543;28;20410;-65
2020/12/13 02:32:39;;;;;;;3.70;3.40;;;10.00;50.00;;;;;;5048933;28;20449;-66
2020/12/13 02:35:06;;;;;;;4.10;3.80;;;9.90;50.70;;;;;;5048037;28;20196;-66
2020/12/13 02:37:32;;;;;;;4.10;3.80;;;9.90;53.00;;;;;;5048214;28;20172;-66
2020/12/13 02:39:57;;;;;;;4.77;4.37;;;9.80;51.60;;;;;;5048632;28;20414;-65
2020/12/13 02:42:23;;;;;;;3.60;3.40;;;9.90;51.70;;;;;;5048512;28;20192;-66
2020/12/13 02:44:49;;;;;;;4.23;3.93;;;10.00;50.10;;;;;;5048501;28;20191;-66
2020/12/13 02:47:14;;;;;;;3.57;3.27;;;10.10;49.70;;;;;;5048332;28;20171;-65
2020/12/13 02:49:41;;;;;;;4.03;3.37;;;10.20;49.20;;;;;;5048499;28;20176;-66
2020/12/13 02:52:08;;;;;;;3.43;3.20;;;10.20;49.20;;;;;;5048172;28;20613;-65
2020/12/13 02:54:33;;;;;;;3.57;3.20;;;10.20;49.40;;;;;;5048356;28;20411;-66
2020/12/13 02:56:59;;;;;;;3.67;3.40;;;10.30;49.50;;;;;;5046899;28;21024;-66
2020/12/13 02:59:24;;;;;;;4.60;4.07;;;10.40;48.70;;;;;;5047968;28;20501;-66
2020/12/13 03:01:50;;;;;;;3.30;3.10;;;10.30;48.80;;;;;;5048329;28;20178;-66
2020/12/13 03:04:15;;;;;;;5.53;3.10;;;10.30;50.00;;;;;;5048583;28;20176;-66
2020/12/13 03:06:41;;;;;;;3.40;3.20;;;10.20;49.10;;;;;;5048123;28;20636;-66
2020/12/13 03:09:06;;;;;;;3.57;3.37;;;10.20;49.10;;;;;;5048194;28;20192;-66
2020/12/13 03:11:32;;;;;;;3.50;3.30;;;10.20;49.40;;;;;;5048188;28;20218;-67
2020/12/13 03:13:57;;;;;;;3.90;3.60;;;10.10;51.50;;;;;;5047945;28;20255;-66
2020/12/13 03:16:23;;;;;;;5.00;4.20;;;10.10;50.00;;;;;;5048235;28;20285;-66
2020/12/13 03:18:48;;;;;;;3.63;3.43;;;10.10;50.10;;;;;;5048135;28;20183;-65
2020/12/13 03:21:14;;;;;;;3.40;3.20;;;10.10;50.00;;;;;;5047896;28;20230;-65
2020/12/13 03:23:40;;;;;;;3.77;3.57;;;10.10;49.90;;;;;;5048264;28;20207;-64
2020/12/13 03:26:05;;;;;;;3.23;3.03;;;10.20;49.20;;;;;;5048162;28;20172;-65
2020/12/13 03:28:31;;;;;;;3.73;3.53;;;10.20;49.20;;;;;;5047666;28;20634;-65
2020/12/13 03:30:57;;;;;;;3.53;3.23;;;10.30;49.00;;;;;;5048092;28;20176;-65
2020/12/13 03:33:23;;;;;;;3.00;2.80;;;10.20;48.90;;;;;;5048031;28;20207;-65
2020/12/13 03:35:49;;;;;;;3.33;3.03;;;10.20;49.40;;;;;;5047727;28;20458;-65
2020/12/13 03:38:14;;;;;;;3.40;3.20;;;10.30;49.00;;;;;;5047935;28;20168;-65
2020/12/13 03:40:40;;;;;;;3.60;3.40;;;10.20;48.90;;;;;;5048192;28;20749;-66
2020/12/13 03:43:06;;;;;;;3.20;3.00;;;10.10;50.10;;;;;;5047956;28;20792;-66
2020/12/13 03:45:31;;;;;;;4.27;3.77;;;10.20;49.50;;;;;;5049110;28;20279;-66
2020/12/13 03:47:57;;;;;;;3.67;3.47;;;10.20;49.30;;;;;;5051457;28;20246;-66
2020/12/13 03:50:22;;;;;;;3.73;3.50;;;10.20;49.00;;;;;;5051569;28;20225;-66
2020/12/13 03:52:48;;;;;;;3.93;3.63;;;10.20;49.40;;;;;;5051457;28;20859;-66
2020/12/13 03:55:13;;;;;;;2.87;2.77;;;10.20;49.60;;;;;;5051332;28;20196;-66
2020/12/13 03:57:39;;;;;;;3.53;3.23;;;10.20;49.40;;;;;;5050922;28;20184;-66
2020/12/13 04:00:05;;;;;;;3.60;3.27;;;10.20;49.40;;;;;;5051413;28;20160;-66
2020/12/13 04:02:31;;;;;;;3.00;2.80;;;10.30;49.20;;;;;;5051233;28;20237;-65
2020/12/13 04:04:56;;;;;;;3.47;3.27;;;10.40;48.80;;;;;;5051121;28;20490;-66
2020/12/13 04:07:22;;;;;;;3.17;2.97;;;10.50;48.70;;;;;;5051086;28;20202;-65
2020/12/13 04:09:47;;;;;;;3.47;3.27;;;10.50;48.40;;;;;;5051153;28;20164;-66
2020/12/13 04:12:13;;;;;;;3.90;3.70;;;10.40;48.30;;;;;;5050713;28;21070;-66
2020/12/13 04:14:38;;;;;;;3.17;2.97;;;10.40;48.60;;;;;;5051119;28;20200;-66
2020/12/13 04:17:04;;;;;;;3.50;3.30;;;10.40;49.10;;;;;;5050805;28;20202;-65
2020/12/13 04:19:31;;;;;;;2.73;2.53;;;10.30;49.50;;;;;;5050828;28;20163;-66
2020/12/13 04:21:58;;;;;;;3.40;3.20;;;10.20;49.70;;;;;;5051047;28;20247;-66
2020/12/13 04:24:23;;;;;;;2.83;2.63;;;10.10;50.00;;;;;;5050718;28;21112;-66
2020/12/13 04:26:49;;;;;;;3.20;3.00;;;9.90;51.70;;;;;;5050665;28;20462;-64
2020/12/13 04:29:14;;;;;;;3.43;3.23;;;10.10;50.50;;;;;;5050711;28;20176;-66
2020/12/13 04:31:40;;;;;;;3.10;2.90;;;10.20;49.20;;;;;;5050700;28;20179;-65
2020/12/13 04:34:05;;;;;;;3.17;2.97;;;10.30;49.00;;;;;;5050744;28;20176;-65
2020/12/13 04:36:31;;;;;;;3.33;3.13;;;10.20;49.10;;;;;;5050557;28;20238;-66
2020/12/13 04:38:56;;;;;;;3.13;3.00;;;10.10;49.30;;;;;;5050366;28;20171;-65
2020/12/13 04:41:22;;;;;;;3.10;2.90;;;10.20;49.80;;;;;;5050503;28;20168;-65
2020/12/13 04:43:48;;;;;;;3.17;2.97;;;10.30;49.30;;;;;;5050360;28;20199;-65
2020/12/13 04:46:14;;;;;;;3.10;2.90;;;10.20;49.40;;;;;;5050437;28;20263;-65
2020/12/13 04:48:40;;;;;;;3.40;3.20;;;10.10;49.40;;;;;;5050386;28;20506;-65
2020/12/13 04:51:08;;;;;;;3.20;3.00;;;10.10;49.90;;;;;;5050275;28;20183;-65
2020/12/13 04:53:37;;;;;;;3.23;3.03;;;10.20;49.70;;;;;;5050452;28;20426;-65
2020/12/13 04:56:10;;;;;;;3.37;3.10;;;10.30;49.60;;;;;;5050349;28;20455;-65
2020/12/13 04:58:36;;;;;;;3.27;3.07;;;10.40;49.60;;;;;;5048036;28;20439;-65
2020/12/13 05:01:03;;;;;;;3.33;3.03;;;10.30;48.70;;;;;;5050368;28;20500;-66
2020/12/13 05:03:30;;;;;;;3.03;2.83;;;10.30;48.60;;;;;;5050133;28;20426;-66
2020/12/13 05:06:00;;;;;;;2.40;2.30;;;10.30;48.70;;;;;;5050060;28;20843;-66
2020/12/13 05:08:27;;;;;;;3.70;2.87;;;10.40;48.00;;;;;;5049969;28;20449;-64
2020/12/13 05:10:53;;;;;;;4.00;3.60;;;10.40;48.10;;;;;;5050195;28;20417;-65
2020/12/13 05:13:19;;;;;;;2.67;2.47;;;10.40;47.90;;;;;;5049818;28;20464;-66
2020/12/13 05:15:45;;;;;;;2.33;2.23;;;10.30;48.40;;;;;;5050065;28;20287;-66
2020/12/13 05:18:10;;;;;;;2.50;2.40;;;10.30;48.40;;;;;;5049939;28;20207;-66
2020/12/13 05:20:36;;;;;;;2.97;2.77;;;10.30;48.80;;;;;;5049928;28;20454;-66
2020/12/13 05:23:02;;;;;;;2.73;2.53;;;10.20;48.80;;;;;;5049764;28;20261;-65
2020/12/13 05:25:33;;;;;;;2.50;2.37;;;10.20;49.00;;;;;;5049848;28;20275;-65
2020/12/13 05:28:01;;;;;;;2.80;2.57;;;10.40;48.70;;;;;;5049406;28;20438;-65
2020/12/13 05:30:36;;;;;;;3.07;2.67;;;10.30;48.60;;;;;;5049801;28;20834;-65
2020/12/13 05:33:06;;;;;;;3.00;2.80;;;10.40;48.60;;;;;;5049639;28;20513;-66
2020/12/13 05:35:31;;;;;;;2.57;2.37;;;10.40;47.90;;;;;;5049134;28;20454;-65
2020/12/13 05:37:57;;;;;;;3.20;3.00;;;10.50;48.10;;;;;;5049488;28;20425;-65
2020/12/13 05:40:24;;;;;;;2.57;2.43;;;10.30;48.40;;;;;;5049749;28;20246;-65
2020/12/13 05:43:02;;;;;;;6.77;6.17;;;10.40;49.30;;;;;;5049203;28;20195;-65
2020/12/13 05:45:53;;;;;;;3.17;2.97;;;10.40;49.70;;;;;;5049340;28;20913;-65
2020/12/13 05:48:46;;;;;;;3.00;2.80;;;10.50;48.20;;;;;;5049164;28;20425;-65
2020/12/13 05:51:22;;;;;;;3.00;2.80;;;10.50;48.10;;;;;;5049077;28;20418;-65
2020/12/13 05:53:47;;;;;;;2.50;2.40;;;10.60;48.10;;;;;;5049244;28;20438;-65
2020/12/13 05:56:13;;;;;;;2.80;2.70;;;10.60;49.30;;;;;;5048806;28;20455;-65
2020/12/13 05:58:39;;;;;;;2.90;2.70;;;10.50;48.50;;;;;;5048979;28;20188;-65
2020/12/13 06:01:06;;;;;;;2.40;2.30;;;10.50;48.20;;;;;;5049221;28;20824;-66
2020/12/13 06:03:37;;;;;;;2.47;2.37;;;10.60;47.40;;;;;;5048658;28;20601;-67
2020/12/13 06:06:07;;;;;;;2.30;2.20;;;10.60;47.40;;;;;;5048917;28;20927;-65
2020/12/13 06:08:56;;;;;;;2.33;2.13;;;10.60;46.70;;;;;;5048426;28;20781;-66
2020/12/13 06:11:22;;;;;;;3.27;3.00;;;10.70;47.10;;;;;;5048600;28;20418;-66
2020/12/13 06:13:53;;;;;;;2.63;2.53;;;10.70;46.50;;;;;;5048791;28;20430;-66
2020/12/13 06:16:20;;;;;;;2.80;2.60;;;10.80;46.90;;;;;;5048856;28;20545;-66
2020/12/13 06:18:45;;;;;;;2.60;2.50;;;10.80;47.20;;;;;;5048481;28;20414;-65
2020/12/13 06:21:14;;;;;;;2.80;2.60;;;10.90;46.10;;;;;;5048853;28;20604;-66
2020/12/13 06:23:44;;;;;;;2.90;2.70;;;10.80;46.60;;;;;;5048664;28;20551;-66
2020/12/13 06:26:10;;;;;;;3.00;2.80;;;10.80;47.10;;;;;;5048742;28;20446;-65
2020/12/13 06:28:36;;;;;;;2.80;2.43;;;10.60;47.30;;;;;;5048649;28;20414;-67
2020/12/13 06:31:03;;;;;;;2.50;2.40;;;10.80;46.60;;;;;;5048724;28;20468;-65
2020/12/13 06:33:28;;;;;;;2.30;2.20;;;10.80;46.30;;;;;;5048418;28;20680;-65
2020/12/13 06:35:54;;;;;;;2.07;1.97;;;10.70;46.70;;;;;;5048447;28;20454;-65
2020/12/13 06:38:19;;;;;;;2.20;2.10;;;10.60;47.00;;;;;;5048632;28;20172;-65
2020/12/13 06:40:50;;;;;;;2.00;1.90;;;10.70;46.90;;;;;;5047007;28;20318;-65
2020/12/13 06:43:17;;;;;;;1.67;1.60;;;10.60;46.30;;;;;;5048540;28;20188;-66
2020/12/13 06:45:43;;;;;;;1.93;1.83;;;10.70;46.80;;;;;;5048425;28;20403;-67
2020/12/13 06:48:08;;;;;;;2.00;1.90;;;10.60;46.30;;;;;;5048440;28;20476;-66
2020/12/13 06:50:36;;;;;;;3.03;2.83;;;10.60;46.50;;;;;;5048539;28;20183;-66
2020/12/13 06:53:02;;;;;;;2.10;2.00;;;10.60;46.90;;;;;;5048742;28;20206;-65
2020/12/13 06:55:32;;;;;;;4.57;2.90;;;10.70;46.60;;;;;;5048595;28;20454;-65
2020/12/13 06:57:58;;;;;;;2.00;1.90;;;10.70;46.50;;;;;;5048199;28;20527;-65
2020/12/13 07:00:24;;;;;;;2.30;2.20;;;10.80;46.20;;;;;;5046802;28;20411;-65
2020/12/13 07:03:00;;;;;;;2.70;2.60;;;10.70;46.30;;;;;;5047834;28;20422;-65
2020/12/13 07:05:47;;;;;;;2.10;2.00;;;10.80;46.20;;;;;;5048664;28;20596;-66
2020/12/13 07:08:20;;;;;;;2.63;2.20;;;10.70;46.00;;;;;;5048232;28;20449;-66
2020/12/13 07:10:49;;;;;;;2.40;2.30;;;10.80;46.40;;;;;;5048208;28;20409;-66
2020/12/13 07:13:19;;;;;;;2.10;2.00;;;10.80;45.60;;;;;;5048141;28;20430;-66
2020/12/13 07:16:09;;;;;;;2.40;2.20;;;10.70;46.00;;;;;;5048531;28;20446;-65
2020/12/13 07:18:35;;;;;;;2.70;2.50;;;10.70;46.40;;;;;;5047894;28;20446;-66
2020/12/13 07:21:01;;;;;;;2.27;2.17;;;10.70;46.70;;;;;;5049841;28;20402;-66
2020/12/13 07:23:27;;;;;;;2.50;2.37;;;10.60;48.20;;;;;;5051593;28;21022;-65
2020/12/13 07:25:54;;;;;;;1.97;1.87;;;10.70;48.00;;;;;;5051593;28;20528;-65
2020/12/13 07:28:21;;;;;;;2.70;2.37;;;10.90;48.10;;;;;;5051907;28;20179;-66
2020/12/13 07:30:47;;;;;;;2.07;1.93;;;11.30;47.20;;;;;;5051745;28;20414;-67
2020/12/13 07:33:13;;;;;;;2.77;1.97;;;11.20;45.10;;;;;;5051484;28;20437;-67
2020/12/13 07:35:40;;;;;;;2.17;1.97;;;11.10;45.70;;;;;;5051713;28;20203;-66
2020/12/13 07:38:06;;;;;;;1.80;1.70;;;11.00;45.10;;;;;;5050071;28;20178;-66
2020/12/13 07:40:31;;;;;;;2.20;2.07;;;11.00;45.10;;;;;;5051303;28;20406;-66
2020/12/13 07:42:59;;;;;;;1.63;1.53;;;11.00;45.50;;;;;;5051641;28;20271;-66
2020/12/13 07:45:25;;;;;;;2.07;1.90;;;10.90;45.80;;;;;;5050945;28;20203;-65
2020/12/13 07:48:03;;;;;;;1.93;1.83;;;10.80;46.80;;;;;;5051219;28;20417;-65
2020/12/13 07:50:42;;;;;;;1.90;1.80;;;10.90;47.10;;;;;;5051466;28;20410;-65
2020/12/13 07:53:08;;;;;;;1.60;1.50;;;10.70;47.60;;;;;;5051240;28;20434;-65
2020/12/13 07:55:33;;;;;;;2.27;2.17;;;10.70;47.70;;;;;;5051244;28;20458;-66
2020/12/13 07:58:00;;;;;;;6.40;2.43;;;10.40;49.20;;;;;;5051214;28;20184;-65
2020/12/13 08:00:25;;;;;;;3.80;2.77;;;10.40;50.20;;;;;;5051404;28;20229;-65
2020/12/13 08:02:56;;;;;;;3.00;2.80;;;10.40;50.00;;;;;;5051063;28;21132;-65
2020/12/13 08:05:26;;;;;;;2.53;2.33;;;10.50;50.20;;;;;;5051187;28;20627;-65
2020/12/13 08:08:02;;;;;;;2.53;2.33;;;10.60;49.70;;;;;;5051430;28;20421;-66
2020/12/13 08:10:28;;;;;;;2.23;2.13;;;10.60;49.30;;;;;;5049759;28;20418;-66
2020/12/13 08:12:55;;;;;;;2.40;2.20;;;10.60;49.40;;;;;;5050946;28;20437;-67
2020/12/13 08:15:20;;;;;;;2.13;1.93;;;10.50;49.90;;;;;;5049963;28;20462;-66
2020/12/13 08:18:07;;;;;;;2.13;2.03;;;10.20;51.60;;;;;;5051102;28;20413;-65
2020/12/13 08:20:38;;;;;;;2.10;2.00;;;10.30;51.70;;;;;;5050797;28;20404;-66
2020/12/13 08:23:05;;;;;;;2.50;2.40;;;10.40;50.60;;;;;;5050813;28;20446;-66
2020/12/13 08:25:35;;;;;;;1.93;1.83;;;10.30;51.40;;;;;;5050559;28;20457;-66
2020/12/13 08:28:03;;;;;;;2.47;2.27;;;10.40;51.20;;;;;;5050701;28;20454;-66
2020/12/13 08:30:30;;;;;;;2.63;2.43;;;10.30;51.10;;;;;;5050619;28;20441;-65
2020/12/13 08:32:58;;;;;;;2.57;2.37;;;10.20;51.60;;;;;;5049356;28;20423;-67
2020/12/13 08:35:23;;;;;;;2.40;2.20;;;10.30;51.70;;;;;;5050496;28;20809;-67
2020/12/13 08:37:59;;;;;;;2.27;2.17;;;10.20;51.60;;;;;;5050124;28;20498;-67
2020/12/13 08:40:36;;;;;;;2.33;2.23;;;10.30;51.60;;;;;;5050411;28;20176;-66
2020/12/13 08:43:03;;;;;;;3.47;3.17;;;10.30;50.60;;;;;;5050592;28;20426;-67
2020/12/13 08:45:28;;;;;;;2.67;2.53;;;10.00;51.40;;;;;;5050570;28;20411;-67
2020/12/13 08:48:01;;;;;;;2.90;2.80;;;9.90;52.70;;;;;;5050031;28;20414;-67
2020/12/13 08:50:27;;;;;;;4.10;3.80;;;9.90;53.20;;;;;;5050422;28;20171;-67
2020/12/13 08:52:53;;;;;;;2.90;2.70;;;10.00;51.90;;;;;;5049291;28;20580;-66
2020/12/13 08:55:28;;;;;;;2.77;2.67;;;10.10;51.70;;;;;;5049914;28;20211;-67
2020/12/13 08:58:00;;;;;;;2.97;2.77;;;10.20;50.80;;;;;;5050372;28;20174;-68
2020/12/13 09:00:27;;;;;;;2.87;2.77;;;10.50;50.00;;;;;;5048965;28;20416;-66
2020/12/13 09:03:02;;;;;;;5.80;2.97;;;10.60;49.20;;;;;;5049861;28;20422;-67
2020/12/13 09:05:34;;;;;;;4.13;3.90;;;10.60;49.30;;;;;;5050388;28;20424;-66
2020/12/13 09:08:00;;;;;;;2.93;2.73;;;10.60;48.70;;;;;;5049796;28;20922;-66
2020/12/13 09:10:28;;;;;;;3.13;2.93;;;10.50;49.10;;;;;;5050128;28;20410;-67
2020/12/13 09:12:53;;;;;;;3.10;2.90;;;10.50;48.60;;;;;;5049976;28;20430;-67
2020/12/13 09:15:22;;;;;;;3.70;3.50;;;10.40;49.10;;;;;;5049815;28;20783;-67
2020/12/13 09:18:04;;;;;;;3.40;3.20;;;10.50;49.20;;;;;;5049459;28;20235;-67
2020/12/13 09:20:34;;;;;;;3.20;3.00;;;10.60;48.20;;;;;;5049640;28;20463;-67
2020/12/13 09:23:20;;;;;;;3.10;2.90;;;10.80;47.70;;;;;;5049404;28;20458;-67
2020/12/13 09:25:47;;;;;;;3.57;3.27;;;10.90;45.90;;;;;;5049391;28;20589;-67
2020/12/13 09:28:14;;;;;;;5.07;3.93;;;10.90;46.00;;;;;;5049514;28;20564;-67
2020/12/13 09:30:41;;;;;;;3.87;3.50;;;10.80;45.60;;;;;;5049263;28;20422;-67
2020/12/13 09:33:08;;;;;;;4.00;3.70;;;10.80;45.50;;;;;;5049308;28;20426;-66
2020/12/13 09:35:34;;;;;;;3.20;3.00;;;10.80;45.10;;;;;;5049397;28;20457;-65
2020/12/13 09:38:08;;;;;;;3.87;3.57;;;10.80;45.10;;;;;;5049214;28;20410;-67
2020/12/13 09:40:34;;;;;;;3.23;3.03;;;11.00;45.20;;;;;;5049492;28;20441;-67
2020/12/13 09:43:00;;;;;;;3.87;3.53;;;11.00;44.70;;;;;;5049388;28;20513;-67
2020/12/13 09:45:26;;;;;;;4.07;3.77;;;11.00;44.70;;;;;;5049010;28;20881;-67
2020/12/13 09:47:58;;;;;;;3.70;3.40;;;11.10;45.00;;;;;;5049165;28;20410;-67
2020/12/13 09:50:25;;;;;;;3.47;3.17;;;11.10;44.50;;;;;;5047994;28;20433;-66
2020/12/13 09:52:51;;;;;;;3.83;3.53;;;11.20;44.50;;;;;;5048758;28;20439;-67
2020/12/13 09:55:16;;;;;;;3.60;3.30;;;10.90;45.40;;;;;;5047512;28;20606;-67
2020/12/13 09:57:42;;;;;;;3.13;2.93;;;10.70;45.90;;;;;;5048977;28;20403;-67
2020/12/13 10:00:07;;;;;;;3.90;3.60;;;10.60;47.10;;;;;;5048546;28;20207;-66
2020/12/13 10:02:33;;;;;;;4.10;3.80;;;10.70;47.00;;;;;;5048816;28;20199;-66
2020/12/13 10:05:00;;;;;;;3.53;3.33;;;10.60;46.60;;;;;;5048822;28;20180;-66
2020/12/13 10:07:33;;;;;;;2.97;2.77;;;10.80;46.90;;;;;;5048504;28;20164;-66
2020/12/13 10:09:59;;;;;;;3.97;3.67;;;10.80;46.70;;;;;;5048906;28;20795;-66
2020/12/13 10:12:24;;;;;;;3.90;3.60;;;10.60;47.40;;;;;;5048805;28;20430;-67
2020/12/13 10:14:50;;;;;;;2.97;2.73;;;10.70;47.30;;;;;;5048677;28;20187;-68
2020/12/13 10:17:16;;;;;;;3.97;3.67;;;10.80;46.70;;;;;;5048608;28;20180;-67
2020/12/13 10:19:41;;;;;;;3.27;3.07;;;11.00;46.30;;;;;;5048630;28;20164;-67
2020/12/13 10:22:07;;;;;;;4.57;4.17;;;11.10;44.50;;;;;;5048142;28;20818;-66
2020/12/13 10:24:32;;;;;;;3.60;3.30;;;11.10;45.50;;;;;;5048438;28;20195;-66
2020/12/13 10:26:58;;;;;;;3.10;2.90;;;11.20;44.60;;;;;;5048464;28;20180;-67
2020/12/13 10:29:24;;;;;;;3.40;3.17;;;11.10;43.20;;;;;;5046544;28;20243;-66
2020/12/13 10:31:49;;;;;;;2.80;2.60;;;11.20;43.40;;;;;;5047596;28;20176;-66
2020/12/13 10:34:18;;;;;;;2.67;2.57;;;11.20;43.10;;;;;;5048526;28;20394;-66
2020/12/13 10:36:45;;;;;;;2.47;2.30;;;11.20;41.40;;;;;;5048529;28;20834;-66
2020/12/13 10:39:11;;;;;;;2.43;2.23;;;11.20;42.70;;;;;;5048700;28;20414;-66
2020/12/13 10:41:38;;;;;;;2.60;2.40;;;11.20;41.60;;;;;;5048344;28;20428;-66
2020/12/13 10:44:04;;;;;;;2.17;2.07;;;11.20;41.30;;;;;;5048400;28;20963;-67
2020/12/13 10:46:30;;;;;;;2.57;2.37;;;11.10;41.40;;;;;;5048290;28;20414;-67
2020/12/13 10:48:55;;;;;;;2.67;2.47;;;11.10;41.60;;;;;;5048130;28;20421;-66
2020/12/13 10:51:21;;;;;;;2.60;2.40;;;11.20;40.80;;;;;;5048395;28;20597;-66
2020/12/13 10:53:47;;;;;;;2.40;2.30;;;11.40;40.40;;;;;;5048098;28;20200;-66
2020/12/13 10:56:14;;;;;;;2.87;2.17;;;11.20;39.80;;;;;;5050216;28;20540;-67
2020/12/13 10:58:41;;;;;;;2.47;2.27;;;11.20;40.60;;;;;;5052386;28;20410;-67
2020/12/13 11:01:13;;;;;;;1.87;1.77;;;11.20;39.10;;;;;;5050769;28;20747;-67
2020/12/13 11:03:39;;;;;;;2.13;1.80;;;11.20;38.30;;;;;;5052353;28;20418;-68
2020/12/13 11:06:07;;;;;;;1.87;1.77;;;11.10;38.10;;;;;;5052497;28;20974;-67
2020/12/13 11:08:33;;;;;;;1.80;1.70;;;11.20;37.70;;;;;;5052320;28;20599;-68
2020/12/13 11:10:58;;;;;;;2.07;1.90;;;11.30;38.50;;;;;;5052198;28;20448;-68
2020/12/13 11:13:24;;;;;;;3.37;3.07;;;11.40;38.40;;;;;;5052222;28;20203;-67
2020/12/13 11:15:49;;;;;;;2.40;2.30;;;11.40;38.50;;;;;;5052172;28;20408;-68
2020/12/13 11:18:15;;;;;;;3.40;2.80;;;11.50;38.50;;;;;;5052009;28;20218;-67
2020/12/13 11:20:41;;;;;;;3.93;2.30;;;11.50;38.90;;;;;;5051988;28;20179;-67
2020/12/13 11:23:07;;;;;;;2.30;2.20;;;11.60;38.70;;;;;;5051480;28;20242;-66
2020/12/13 11:25:33;;;;;;;2.40;2.20;;;11.50;38.60;;;;;;5051670;28;20198;-66
2020/12/13 11:27:59;;;;;;;2.43;2.23;;;11.60;38.80;;;;;;5051841;28;20442;-66
2020/12/13 11:30:25;;;;;;;4.60;2.27;;;11.60;38.20;;;;;;5051405;28;20180;-65
2020/12/13 11:32:51;;;;;;;3.60;2.20;;;11.30;39.00;;;;;;5053516;28;20422;-65
2020/12/13 11:35:17;;;;;;;2.27;2.13;;;11.20;39.30;;;;;;5053857;28;20194;-66
2020/12/13 11:37:43;;;;;;;10.37;2.60;;;11.30;39.40;;;;;;5053425;28;20222;-66
2020/12/13 11:40:09;;;;;;;2.30;2.20;;;11.20;39.20;;;;;;5053684;28;20468;-66
2020/12/13 11:42:35;;;;;;;2.70;2.50;;;11.20;39.70;;;;;;5053724;28;20763;-66
2020/12/13 11:45:02;;;;;;;5.97;5.40;;;11.30;39.90;;;;;;5053491;28;20846;-66
2020/12/13 11:47:28;;;;;;;3.70;3.40;;;11.40;39.60;;;;;;5053598;28;20913;-66
2020/12/13 11:49:53;;;;;;;2.60;2.40;;;11.30;40.30;;;;;;5053643;28;20456;-66
2020/12/13 11:52:19;;;;;;;3.30;3.10;;;11.40;39.20;;;;;;5053169;28;20203;-66
2020/12/13 11:54:44;;;;;;;2.70;2.50;;;11.40;40.40;;;;;;5053248;28;20188;-67
2020/12/13 11:57:11;;;;;;;2.87;2.67;;;11.40;38.80;;;;;;5053463;28;20246;-66
2020/12/13 11:59:37;;;;;;;3.30;3.10;;;11.40;39.00;;;;;;5053210;28;20183;-67
2020/12/13 12:02:02;;;;;;;2.60;2.10;;;11.30;39.40;;;;;;5053213;28;20809;-67
2020/12/13 12:04:28;;;;;;;2.67;2.47;;;11.30;38.90;;;;;;5053459;28;20257;-67
2020/12/13 12:06:55;;;;;;;3.67;2.27;;;11.30;38.80;;;;;;5051890;28;20192;-67
2020/12/13 12:09:20;;;;;;;2.40;2.20;;;11.40;39.10;;;;;;5052908;28;20175;-67
2020/12/13 12:11:47;;;;;;;1.87;1.77;;;11.40;38.80;;;;;;5053152;28;20410;-66
2020/12/13 12:14:13;;;;;;;1.60;1.50;;;11.40;37.70;;;;;;5052908;28;20251;-67
2020/12/13 12:16:40;;;;;;;2.23;2.07;;;11.40;38.10;;;;;;5053253;28;20566;-66
2020/12/13 12:19:06;;;;;;;1.73;1.63;;;11.50;39.10;;;;;;5052856;28;20920;-67
2020/12/13 12:21:34;;;;;;;2.23;2.03;;;11.50;37.90;;;;;;5052662;28;20414;-67
2020/12/13 12:24:00;;;;;;;2.40;2.10;;;11.50;37.70;;;;;;5052774;28;20430;-67
2020/12/13 12:26:31;;;;;;;2.07;1.87;;;11.50;37.50;;;;;;5052901;28;20414;-67
2020/12/13 12:28:57;;;;;;;2.00;1.80;;;11.50;37.80;;;;;;5052510;28;20446;-66
2020/12/13 12:31:23;;;;;;;1.80;1.70;;;11.40;38.30;;;;;;5052897;28;20878;-67
2020/12/13 12:33:49;;;;;;;2.40;2.20;;;11.50;37.40;;;;;;5052651;28;20444;-67
2020/12/13 12:36:26;;;;;;;1.87;1.77;;;11.50;37.90;;;;;;5052240;28;20222;-67
2020/12/13 12:38:52;;;;;;;2.17;1.97;;;11.40;38.20;;;;;;5052655;28;20183;-67
2020/12/13 12:41:20;;;;;;;1.90;1.80;;;11.40;37.40;;;;;;5052628;28;20407;-67
2020/12/13 12:43:47;;;;;;;2.23;1.93;;;11.40;37.20;;;;;;5052185;28;20423;-67
2020/12/13 12:46:13;;;;;;;2.40;2.20;;;11.40;37.10;;;;;;5052514;28;20410;-67
2020/12/13 12:48:40;;;;;;;2.13;1.93;;;11.30;38.10;;;;;;5052240;28;20425;-67